Ralls, Texas
Current Conditions -  °F | °C
As of 5:53 PM on Friday 19 Dec 2014 (Local Time) from KLBB Reporting Station
Broken Clouds Broken Clouds  
Wind Chill: 37°   Ceiling: 1400
Heat Index: 41°   Visibility: 10mi
Dew Point: 36°   Wind: 6mph
Humidity: 82%   Direction: 80°E
Pressure: 30.13"   Gusts: NA
Location:  33.67°N, 101.39°W
Report Text: KLBB 192353Z 08005KT 10SM BKN014 05/02 A3013 RMK AO2 SLP199 CIG HIR S-W-NW T00500022 10056 20028 53004
Loading
Personal Weather Stations






























Interactive Weather Map New forecast layout! Learn more

10-Day Weather Forecast

Advertisements
Track Severe Weather on mobile